Time;durP1;ratioP1;P1;durP2;ratioP2;P2;SDS_P1;SDS_P2;PMS_P1;PMS_P2;Temp;Humidity;BMP_temperature;BMP_pressure;BME280_temperature;BME280_humidity;BME280_pressure;Samples;Min_cycle;Max_cycle;Signal;HPM_P1;HPM_P2
2021/11/07 00:05:41;;;;;;;38.13;16.80;;;;;;;;;;4959601;28;20121;-78
2021/11/07 00:13:05;;;;;;;26.50;12.23;;;;;;;;;;4960550;28;20503;-78
2021/11/07 00:15:31;;;;;;;31.38;13.68;;;;;;;;;;4968288;28;20039;-77
2021/11/07 00:18:00;;;;;;;28.48;13.15;;;;;;;;;;4962363;28;20377;-80
2021/11/07 00:20:30;;;;;;;29.45;12.43;;;;;;;;;;4943551;28;20026;-78
2021/11/07 00:25:42;;;;;;;27.52;12.88;;;;;;;;;;4959341;28;20074;-78
2021/11/07 00:28:15;;;;;;;30.15;12.82;;;;;;;;;;4959036;28;20047;-78
2021/11/07 00:31:03;;;;;;;28.67;12.65;;;;;;;;;;4958070;28;20058;-78
2021/11/07 00:38:59;;;;;;;28.30;10.98;;;;;;;;;;4958291;28;20039;-78
2021/11/07 00:41:35;;;;;;;27.63;12.10;;;;;;;;;;4957058;28;20050;-78
2021/11/07 00:44:15;;;;;;;30.33;12.38;;;;;;;;;;4958811;28;20118;-78
2021/11/07 00:46:46;;;;;;;32.92;13.23;;;;;;;;;;4959797;28;20652;-78
2021/11/07 00:52:21;;;;;;;33.42;14.75;;;;;;;;;;4961563;28;20055;-78
2021/11/07 00:59:59;;;;;;;34.42;13.85;;;;;;;;;;4956882;28;20056;-78
2021/11/07 01:02:34;;;;;;;36.03;14.25;;;;;;;;;;4957938;28;20038;-78
2021/11/07 01:05:05;;;;;;;35.63;15.13;;;;;;;;;;4960135;28;20020;-77
2021/11/07 01:07:31;;;;;;;35.20;14.32;;;;;;;;;;4949424;28;20041;-78
2021/11/07 01:09:59;;;;;;;34.33;14.23;;;;;;;;;;4938732;28;20051;-78
2021/11/07 01:12:25;;;;;;;33.92;14.57;;;;;;;;;;4960956;28;20039;-78
2021/11/07 01:14:53;;;;;;;35.00;14.85;;;;;;;;;;4961231;28;20020;-78
2021/11/07 01:17:19;;;;;;;38.40;16.02;;;;;;;;;;4957169;28;20125;-78
2021/11/07 01:19:44;;;;;;;41.47;18.42;;;;;;;;;;4957875;28;20086;-78
2021/11/07 01:22:16;;;;;;;35.97;16.75;;;;;;;;;;4961348;28;20090;-77
2021/11/07 01:24:50;;;;;;;44.97;17.58;;;;;;;;;;4961885;28;20483;-79
2021/11/07 01:27:35;;;;;;;41.90;17.85;;;;;;;;;;4966222;28;20026;-79
2021/11/07 01:30:03;;;;;;;44.35;17.67;;;;;;;;;;4960778;28;20091;-79
2021/11/07 01:32:36;;;;;;;40.17;17.83;;;;;;;;;;4966724;28;20047;-79
2021/11/07 01:35:23;;;;;;;37.97;17.02;;;;;;;;;;4962960;28;20043;-78
2021/11/07 01:38:10;;;;;;;37.35;16.75;;;;;;;;;;4967427;28;20038;-79
2021/11/07 01:40:42;;;;;;;34.53;15.95;;;;;;;;;;4962630;28;20042;-79
2021/11/07 01:43:09;;;;;;;42.15;17.00;;;;;;;;;;4963761;28;20023;-79
2021/11/07 01:45:51;;;;;;;38.95;16.55;;;;;;;;;;4967960;28;20058;-79
2021/11/07 01:48:24;;;;;;;35.90;17.45;;;;;;;;;;4962619;28;20034;-79
2021/11/07 01:50:56;;;;;;;36.00;15.48;;;;;;;;;;4963075;28;20806;-79
2021/11/07 01:53:29;;;;;;;33.60;15.63;;;;;;;;;;4964516;28;20031;-78
2021/11/07 01:55:58;;;;;;;40.53;17.60;;;;;;;;;;4957632;28;20042;-79
2021/11/07 01:58:27;;;;;;;39.30;17.03;;;;;;;;;;4953572;28;20094;-78
2021/11/07 02:00:54;;;;;;;39.60;16.63;;;;;;;;;;4955247;28;20318;-78
2021/11/07 02:03:20;;;;;;;42.38;17.77;;;;;;;;;;4946225;28;20026;-79
2021/11/07 02:05:46;;;;;;;37.55;15.27;;;;;;;;;;4961852;28;20031;-79
2021/11/07 02:08:12;;;;;;;38.67;16.70;;;;;;;;;;4946650;28;20327;-79
2021/11/07 02:10:40;;;;;;;39.42;15.95;;;;;;;;;;4963243;28;20107;-79
2021/11/07 02:13:07;;;;;;;40.65;17.70;;;;;;;;;;4946891;28;20039;-79
2021/11/07 02:15:32;;;;;;;38.63;18.30;;;;;;;;;;4968655;28;20035;-79
2021/11/07 02:17:58;;;;;;;38.67;14.60;;;;;;;;;;4964038;28;20094;-79
2021/11/07 02:20:31;;;;;;;34.40;13.57;;;;;;;;;;4962993;28;20031;-79
2021/11/07 02:23:05;;;;;;;35.05;13.77;;;;;;;;;;4961773;28;20061;-79
2021/11/07 02:25:31;;;;;;;33.30;13.15;;;;;;;;;;4965904;28;20023;-78
2021/11/07 02:27:57;;;;;;;33.42;12.60;;;;;;;;;;4964331;28;20038;-77
2021/11/07 02:30:23;;;;;;;29.40;12.45;;;;;;;;;;4965221;28;20050;-78
2021/11/07 02:32:50;;;;;;;32.08;11.80;;;;;;;;;;4962542;28;20027;-78
2021/11/07 02:35:19;;;;;;;29.70;12.52;;;;;;;;;;4961430;28;20019;-79
2021/11/07 02:37:45;;;;;;;31.20;12.23;;;;;;;;;;4959633;28;20034;-78
2021/11/07 02:40:13;;;;;;;33.38;13.23;;;;;;;;;;4944477;28;20468;-79
2021/11/07 02:42:42;;;;;;;32.60;13.43;;;;;;;;;;4950686;28;20030;-79
2021/11/07 02:45:09;;;;;;;28.90;11.82;;;;;;;;;;4963745;28;20023;-78
2021/11/07 02:47:34;;;;;;;31.20;12.13;;;;;;;;;;4944454;28;20027;-79
2021/11/07 02:50:02;;;;;;;29.65;11.40;;;;;;;;;;4960754;28;20038;-79
2021/11/07 02:52:27;;;;;;;29.08;11.63;;;;;;;;;;4965876;28;20035;-78
2021/11/07 02:54:53;;;;;;;33.10;12.90;;;;;;;;;;4948867;28;20633;-78
2021/11/07 02:57:21;;;;;;;34.80;15.38;;;;;;;;;;4947373;28;20042;-79
2021/11/07 02:59:55;;;;;;;32.53;14.70;;;;;;;;;;4963302;28;20055;-79
2021/11/07 03:02:20;;;;;;;34.00;14.13;;;;;;;;;;4962007;28;20038;-78
2021/11/07 03:04:48;;;;;;;33.38;13.60;;;;;;;;;;4964314;28;20032;-78
2021/11/07 03:07:14;;;;;;;31.70;15.45;;;;;;;;;;4969160;28;20023;-78
2021/11/07 03:09:40;;;;;;;37.17;15.70;;;;;;;;;;4961990;28;20031;-78
2021/11/07 03:12:07;;;;;;;35.58;16.00;;;;;;;;;;4951914;28;20034;-79
2021/11/07 03:14:37;;;;;;;32.70;14.23;;;;;;;;;;4948662;28;20114;-78
2021/11/07 03:17:04;;;;;;;36.33;17.08;;;;;;;;;;4954963;28;20042;-78
2021/11/07 03:19:31;;;;;;;34.53;15.23;;;;;;;;;;4961664;28;20082;-78
2021/11/07 03:21:59;;;;;;;32.00;14.00;;;;;;;;;;4964907;28;20512;-77
2021/11/07 03:24:25;;;;;;;31.85;14.32;;;;;;;;;;4948181;28;20020;-79
2021/11/07 03:26:54;;;;;;;35.92;15.60;;;;;;;;;;4963642;28;20031;-78
2021/11/07 03:29:31;;;;;;;33.42;14.23;;;;;;;;;;4964273;28;20027;-78
2021/11/07 03:32:03;;;;;;;34.95;15.50;;;;;;;;;;4945831;28;20679;-78
2021/11/07 03:34:31;;;;;;;29.77;13.88;;;;;;;;;;4964098;28;20037;-79
2021/11/07 03:37:04;;;;;;;34.38;15.43;;;;;;;;;;4962894;28;20046;-78
2021/11/07 03:39:33;;;;;;;36.00;15.60;;;;;;;;;;4966235;28;20050;-78
2021/11/07 03:41:59;;;;;;;;;;;;;;;;;;4964363;28;20459;-78
2021/11/07 03:44:25;;;;;;;41.22;15.57;;;;;;;;;;4962801;28;19977;-78
2021/11/07 03:46:54;;;;;;;40.30;16.80;;;;;;;;;;4947424;28;20654;-78
2021/11/07 03:49:20;;;;;;;39.45;16.00;;;;;;;;;;4967753;28;20037;-78
2021/11/07 03:51:46;;;;;;;30.27;15.02;;;;;;;;;;4952660;29;20057;-79
2021/11/07 03:54:14;;;;;;;37.10;14.85;;;;;;;;;;4967656;28;20033;-78
2021/11/07 03:56:40;;;;;;;35.75;16.05;;;;;;;;;;4965237;28;20046;-79
2021/11/07 03:59:07;;;;;;;31.90;14.20;;;;;;;;;;4948830;28;20066;-78
2021/11/07 04:01:33;;;;;;;31.90;13.57;;;;;;;;;;4965508;28;20027;-78
2021/11/07 04:03:59;;;;;;;30.60;14.90;;;;;;;;;;4962947;28;20171;-78
2021/11/07 04:06:26;;;;;;;34.95;14.70;;;;;;;;;;4965977;28;20074;-78
2021/11/07 04:08:55;;;;;;;31.83;14.93;;;;;;;;;;4964261;28;20039;-79
2021/11/07 04:11:20;;;;;;;34.23;15.30;;;;;;;;;;4960007;28;20042;-78
2021/11/07 04:13:47;;;;;;;35.97;15.98;;;;;;;;;;4956921;28;20033;-79
2021/11/07 04:16:14;;;;;;;35.85;15.48;;;;;;;;;;4942737;28;20042;-78
2021/11/07 04:18:43;;;;;;;36.25;16.02;;;;;;;;;;4957253;28;20446;-79
2021/11/07 04:21:11;;;;;;;37.42;15.35;;;;;;;;;;4962014;28;20027;-78
2021/11/07 04:23:36;;;;;;;32.95;14.93;;;;;;;;;;4968228;28;20098;-79
2021/11/07 04:26:06;;;;;;;37.10;15.98;;;;;;;;;;4970481;28;20089;-78
2021/11/07 04:28:32;;;;;;;33.65;15.82;;;;;;;;;;4964133;28;20023;-78
2021/11/07 04:30:58;;;;;;;33.47;14.38;;;;;;;;;;4968006;28;20059;-78
2021/11/07 04:33:24;;;;;;;34.70;14.65;;;;;;;;;;4956139;28;20030;-78
2021/11/07 04:35:50;;;;;;;30.40;14.10;;;;;;;;;;4967144;28;20074;-79
2021/11/07 04:38:16;;;;;;;32.38;15.05;;;;;;;;;;4970829;28;21299;-78
2021/11/07 04:40:42;;;;;;;29.60;12.90;;;;;;;;;;4965710;28;20046;-79
2021/11/07 04:43:07;;;;;;;34.80;14.27;;;;;;;;;;4949580;28;20035;-78
2021/11/07 04:45:33;;;;;;;34.15;13.35;;;;;;;;;;4965715;28;20034;-78
2021/11/07 04:47:59;;;;;;;29.92;13.35;;;;;;;;;;4970381;28;20652;-78
2021/11/07 04:50:24;;;;;;;34.53;13.23;;;;;;;;;;4968607;28;20038;-78
2021/11/07 04:52:50;;;;;;;31.13;13.27;;;;;;;;;;4962554;28;20035;-78
2021/11/07 04:55:21;;;;;;;30.75;13.07;;;;;;;;;;4967649;28;20019;-78
2021/11/07 04:57:46;;;;;;;30.83;12.45;;;;;;;;;;4964994;28;20042;-79
2021/11/07 05:00:19;;;;;;;29.00;12.60;;;;;;;;;;4965933;28;20039;-79
2021/11/07 05:02:45;;;;;;;34.22;12.90;;;;;;;;;;4970777;28;20027;-79
2021/11/07 05:05:14;;;;;;;30.52;12.75;;;;;;;;;;4966599;28;20082;-78
2021/11/07 05:07:41;;;;;;;28.27;12.30;;;;;;;;;;4965151;28;20027;-79
2021/11/07 05:10:08;;;;;;;27.85;11.73;;;;;;;;;;4966937;28;20191;-78
2021/11/07 05:12:35;;;;;;;26.98;10.98;;;;;;;;;;4950605;28;20046;-78
2021/11/07 05:15:02;;;;;;;25.95;10.93;;;;;;;;;;4965764;28;20042;-78
2021/11/07 05:17:28;;;;;;;29.77;11.30;;;;;;;;;;4967974;28;20031;-79
2021/11/07 05:19:53;;;;;;;27.20;11.10;;;;;;;;;;4951346;28;20031;-79
2021/11/07 05:22:18;;;;;;;26.98;11.77;;;;;;;;;;4970383;28;20027;-79
2021/11/07 05:24:44;;;;;;;26.98;11.30;;;;;;;;;;4950823;28;20031;-79
2021/11/07 05:27:10;;;;;;;26.35;11.43;;;;;;;;;;4970378;28;20398;-78
2021/11/07 05:29:37;;;;;;;26.02;11.27;;;;;;;;;;4964410;28;20117;-78
2021/11/07 05:32:04;;;;;;;26.23;10.75;;;;;;;;;;4967433;28;20035;-78
2021/11/07 05:34:31;;;;;;;25.58;11.13;;;;;;;;;;4965422;28;20038;-78
2021/11/07 05:36:59;;;;;;;27.77;12.35;;;;;;;;;;4969544;28;20050;-79
2021/11/07 05:39:25;;;;;;;26.50;11.43;;;;;;;;;;4966305;28;20031;-78
2021/11/07 05:41:50;;;;;;;23.25;9.93;;;;;;;;;;4966055;28;20028;-79
2021/11/07 05:44:16;;;;;;;30.02;11.65;;;;;;;;;;4964058;28;20031;-78
2021/11/07 05:46:44;;;;;;;26.10;11.32;;;;;;;;;;4959424;28;20035;-78
2021/11/07 05:49:09;;;;;;;26.77;10.50;;;;;;;;;;4946203;28;20034;-77
2021/11/07 05:51:36;;;;;;;23.77;10.05;;;;;;;;;;4959008;28;20372;-79
2021/11/07 05:54:03;;;;;;;25.98;10.75;;;;;;;;;;4961127;28;20038;-79
2021/11/07 05:56:29;;;;;;;28.95;10.35;;;;;;;;;;4961568;28;20036;-78
2021/11/07 05:58:58;;;;;;;27.35;10.57;;;;;;;;;;4961484;28;20105;-79
2021/11/07 06:01:23;;;;;;;24.38;10.15;;;;;;;;;;4962645;28;20034;-79
2021/11/07 06:03:51;;;;;;;26.02;11.57;;;;;;;;;;4959658;28;20642;-79
2021/11/07 06:06:18;;;;;;;22.63;9.45;;;;;;;;;;4957277;28;20411;-78
2021/11/07 06:08:43;;;;;;;26.70;10.65;;;;;;;;;;4959635;28;20031;-77
2021/11/07 06:11:12;;;;;;;21.17;9.23;;;;;;;;;;4937982;28;20093;-76
2021/11/07 06:13:39;;;;;;;21.77;9.32;;;;;;;;;;4951829;28;20050;-77
2021/11/07 06:16:07;;;;;;;22.02;9.55;;;;;;;;;;4935717;28;20066;-76
2021/11/07 06:18:34;;;;;;;22.98;8.82;;;;;;;;;;4948976;28;20522;-77
2021/11/07 06:21:00;;;;;;;24.70;10.45;;;;;;;;;;4935345;28;20023;-78
2021/11/07 06:23:25;;;;;;;24.15;10.13;;;;;;;;;;4936143;28;20110;-77
2021/11/07 06:25:51;;;;;;;27.10;11.68;;;;;;;;;;4953844;28;20543;-77
2021/11/07 06:28:17;;;;;;;25.33;11.32;;;;;;;;;;4950703;28;20055;-77
2021/11/07 06:30:48;;;;;;;24.77;10.70;;;;;;;;;;4950401;28;20077;-77
2021/11/07 06:33:16;;;;;;;26.60;11.05;;;;;;;;;;4955370;28;20047;-76
2021/11/07 06:35:42;;;;;;;27.38;11.35;;;;;;;;;;4949980;28;20031;-77
2021/11/07 06:38:08;;;;;;;25.25;10.65;;;;;;;;;;4950820;28;20042;-77
2021/11/07 06:40:34;;;;;;;26.55;10.38;;;;;;;;;;4956936;28;20027;-77
2021/11/07 06:43:00;;;;;;;28.58;10.98;;;;;;;;;;4949905;28;20490;-77
2021/11/07 06:45:26;;;;;;;24.92;10.57;;;;;;;;;;4953235;28;20046;-77
2021/11/07 06:47:51;;;;;;;24.67;10.95;;;;;;;;;;4939181;28;20027;-77
2021/11/07 06:50:20;;;;;;;25.27;10.48;;;;;;;;;;4934313;28;20121;-78
2021/11/07 06:52:47;;;;;;;20.73;9.32;;;;;;;;;;4929810;29;20027;-78
2021/11/07 06:55:17;;;;;;;25.58;10.93;;;;;;;;;;4951880;28;20077;-78
2021/11/07 06:57:42;;;;;;;25.20;10.57;;;;;;;;;;4949945;28;20051;-77
2021/11/07 07:00:15;;;;;;;23.05;10.38;;;;;;;;;;4935722;28;20190;-77
2021/11/07 07:02:41;;;;;;;23.67;9.50;;;;;;;;;;4938159;28;20042;-77
2021/11/07 07:05:08;;;;;;;20.17;9.52;;;;;;;;;;4951348;28;20117;-78
2021/11/07 07:07:43;;;;;;;17.48;7.90;;;;;;;;;;4950512;28;20741;-77
2021/11/07 07:10:12;;;;;;;14.57;7.53;;;;;;;;;;4954437;28;20424;-77
2021/11/07 07:12:43;;;;;;;15.85;7.63;;;;;;;;;;4955812;28;20037;-78
2021/11/07 07:15:28;;;;;;;18.73;8.80;;;;;;;;;;4954562;28;20166;-77
2021/11/07 07:35:52;;;;;;;19.63;9.07;;;;;;;;;;4957020;28;20110;-77
2021/11/07 07:38:17;;;;;;;19.15;8.98;;;;;;;;;;4936985;28;20147;-77
2021/11/07 07:40:47;;;;;;;16.00;7.95;;;;;;;;;;4953421;28;20434;-77
2021/11/07 07:43:20;;;;;;;18.50;7.95;;;;;;;;;;4957907;28;20031;-77
2021/11/07 07:45:46;;;;;;;16.92;8.40;;;;;;;;;;4952429;28;20023;-78
2021/11/07 07:48:19;;;;;;;17.77;8.45;;;;;;;;;;4953479;28;20058;-77
2021/11/07 07:50:45;;;;;;;19.73;8.93;;;;;;;;;;4956969;28;20026;-76
2021/11/07 07:53:12;;;;;;;15.98;7.20;;;;;;;;;;4939322;28;20030;-76
2021/11/07 07:55:37;;;;;;;12.25;6.45;;;;;;;;;;4952703;28;20030;-76
2021/11/07 07:58:03;;;;;;;14.43;6.55;;;;;;;;;;4956726;28;20031;-76
2021/11/07 08:00:28;;;;;;;14.45;7.22;;;;;;;;;;4954075;28;20476;-77
2021/11/07 08:02:54;;;;;;;17.30;9.35;;;;;;;;;;4954480;28;20098;-77
2021/11/07 08:05:23;;;;;;;21.48;9.57;;;;;;;;;;4956936;28;20207;-77
2021/11/07 08:07:48;;;;;;;18.00;9.13;;;;;;;;;;4939872;28;20129;-76
2021/11/07 08:10:14;;;;;;;17.33;8.65;;;;;;;;;;4952687;28;20491;-77
2021/11/07 08:12:40;;;;;;;17.90;8.65;;;;;;;;;;4955909;28;20034;-76
2021/11/07 08:15:07;;;;;;;13.55;7.30;;;;;;;;;;4958354;28;20430;-77
2021/11/07 08:17:34;;;;;;;16.55;8.55;;;;;;;;;;4956665;28;20562;-76
2021/11/07 08:20:05;;;;;;;18.52;8.80;;;;;;;;;;4937448;28;20170;-77
2021/11/07 08:22:31;;;;;;;17.38;9.27;;;;;;;;;;4937811;28;20115;-77
2021/11/07 08:25:04;;;;;;;19.30;9.00;;;;;;;;;;4957655;28;20478;-78
2021/11/07 08:27:30;;;;;;;18.58;9.70;;;;;;;;;;4952243;28;20027;-76
2021/11/07 08:29:57;;;;;;;16.25;7.55;;;;;;;;;;4955727;28;20046;-76
2021/11/07 08:32:22;;;;;;;15.95;8.25;;;;;;;;;;4959084;28;20038;-77
2021/11/07 08:34:49;;;;;;;14.75;8.10;;;;;;;;;;4953080;28;20372;-76
2021/11/07 08:37:19;;;;;;;14.80;7.55;;;;;;;;;;4952673;28;20023;-76
2021/11/07 08:39:51;;;;;;;;;;;;;;;;;;4958195;28;20464;-77
2021/11/07 08:42:29;;;;;;;15.15;7.65;;;;;;;;;;4952698;28;20021;-77
2021/11/07 09:06:47;;;;;;;14.95;7.28;;;;;;;;;;4952057;28;20115;-77
2021/11/07 09:09:15;;;;;;;11.32;6.35;;;;;;;;;;4950530;28;20042;-78
2021/11/07 09:11:49;;;;;;;16.95;7.38;;;;;;;;;;4956120;28;20055;-78
2021/11/07 09:14:22;;;;;;;14.95;6.70;;;;;;;;;;4939200;28;20490;-78
2021/11/07 09:16:50;;;;;;;14.02;6.57;;;;;;;;;;4953990;28;20050;-78
2021/11/07 09:19:22;;;;;;;11.80;6.20;;;;;;;;;;4956746;28;20339;-77
2021/11/07 09:21:52;;;;;;;21.27;9.48;;;;;;;;;;4941180;28;20035;-77
2021/11/07 09:24:54;;;;;;;24.63;12.82;;;;;;;;;;4954446;28;20020;-77
2021/11/07 09:27:21;;;;;;;17.80;9.60;;;;;;;;;;4952010;28;20297;-77
2021/11/07 09:30:08;;;;;;;9.15;5.00;;;;;;;;;;4953744;28;20431;-78
2021/11/07 09:40:12;;;;;;;13.77;7.28;;;;;;;;;;4957169;28;20033;-77
2021/11/07 09:47:42;;;;;;;8.23;5.00;;;;;;;;;;4951130;28;20030;-77
2021/11/07 09:50:12;;;;;;;6.47;3.90;;;;;;;;;;4959322;28;20110;-77
2021/11/07 09:52:41;;;;;;;7.93;4.63;;;;;;;;;;4951857;28;20086;-77
2021/11/07 09:55:08;;;;;;;5.90;4.22;;;;;;;;;;4953546;28;20051;-77
2021/11/07 09:57:34;;;;;;;7.45;4.85;;;;;;;;;;4953382;28;20039;-77
2021/11/07 10:00:03;;;;;;;6.70;3.85;;;;;;;;;;4938249;28;20020;-77
2021/11/07 10:02:32;;;;;;;6.10;3.40;;;;;;;;;;4935899;28;20697;-77
2021/11/07 10:04:59;;;;;;;5.75;3.28;;;;;;;;;;4953554;28;20039;-77
2021/11/07 10:07:30;;;;;;;9.30;4.20;;;;;;;;;;4955699;28;20031;-77
2021/11/07 10:10:04;;;;;;;6.25;4.07;;;;;;;;;;4955090;28;20074;-77
2021/11/07 10:12:53;;;;;;;7.72;4.10;;;;;;;;;;4941227;28;20030;-77
2021/11/07 10:15:27;;;;;;;5.32;3.22;;;;;;;;;;4955256;28;20483;-77
2021/11/07 10:18:03;;;;;;;5.38;3.50;;;;;;;;;;4956718;28;21696;-77
2021/11/07 10:23:12;;;;;;;6.90;3.90;;;;;;;;;;4951292;28;20401;-77
2021/11/07 10:25:46;;;;;;;5.75;3.53;;;;;;;;;;4950157;28;20020;-77
2021/11/07 10:28:17;;;;;;;4.90;3.35;;;;;;;;;;4956407;28;20031;-77
2021/11/07 10:30:49;;;;;;;5.60;3.67;;;;;;;;;;4958829;28;20086;-78
2021/11/07 10:33:38;;;;;;;5.80;3.42;;;;;;;;;;4965626;28;20035;-78
2021/11/07 10:42:14;;;;;;;5.53;3.63;;;;;;;;;;4952180;28;20454;-77
2021/11/07 10:48:01;;;;;;;7.65;3.90;;;;;;;;;;4952834;28;20042;-78
2021/11/07 10:53:01;;;;;;;3.88;2.83;;;;;;;;;;4955541;28;20144;-76
2021/11/07 10:55:31;;;;;;;4.70;2.55;;;;;;;;;;4952375;28;20182;-78
2021/11/07 10:58:02;;;;;;;4.20;2.30;;;;;;;;;;4950371;28;20035;-78
2021/11/07 11:00:34;;;;;;;4.53;2.47;;;;;;;;;;4948834;28;20019;-76
2021/11/07 11:03:13;;;;;;;5.13;2.67;;;;;;;;;;4940512;28;20033;-78
2021/11/07 11:06:32;;;;;;;4.00;2.30;;;;;;;;;;4950782;28;20031;-77
2021/11/07 11:08:44;;;;;;;5.90;3.28;;;;;;;;;;4941341;28;20089;-76
2021/11/07 11:11:26;;;;;;;4.13;2.55;;;;;;;;;;4954583;28;20027;-78
2021/11/07 11:14:09;;;;;;;4.03;2.60;;;;;;;;;;4956958;28;20443;-76
2021/11/07 11:45:25;;;;;;;9.05;4.63;;;;;;;;;;4955585;28;20114;-77
2021/11/07 11:48:01;;;;;;;9.75;5.10;;;;;;;;;;4935288;29;20023;-78
2021/11/07 11:50:37;;;;;;;8.20;4.60;;;;;;;;;;4940042;28;20034;-78
2021/11/07 11:55:45;;;;;;;8.00;4.20;;;;;;;;;;4954491;28;20177;-77
2021/11/07 12:01:07;;;;;;;10.23;5.50;;;;;;;;;;4950395;28;20031;-77
2021/11/07 12:04:10;;;;;;;7.95;4.50;;;;;;;;;;4951489;28;20034;-77
2021/11/07 12:14:49;;;;;;;6.50;4.05;;;;;;;;;;4955145;28;20141;-77
2021/11/07 12:17:27;;;;;;;6.38;3.90;;;;;;;;;;4944139;28;20557;-77
2021/11/07 12:19:53;;;;;;;4.50;3.20;;;;;;;;;;4945782;28;20167;-76
2021/11/07 12:22:35;;;;;;;4.65;2.97;;;;;;;;;;4957787;28;20031;-77
2021/11/07 12:25:07;;;;;;;4.47;3.35;;;;;;;;;;4950209;28;20034;-76
2021/11/07 12:27:55;;;;;;;4.82;3.30;;;;;;;;;;4954522;28;20449;-77
2021/11/07 12:30:31;;;;;;;4.30;3.20;;;;;;;;;;4956638;28;20363;-78
2021/11/07 12:33:20;;;;;;;6.28;4.20;;;;;;;;;;4951617;28;20058;-77
2021/11/07 12:35:53;;;;;;;3.90;2.60;;;;;;;;;;4951686;28;20395;-77
2021/11/07 12:41:11;;;;;;;3.90;2.50;;;;;;;;;;4954321;28;20082;-78
2021/11/07 12:43:43;;;;;;;3.55;2.47;;;;;;;;;;4960101;28;20478;-78
2021/11/07 12:46:16;;;;;;;5.03;2.67;;;;;;;;;;4956462;28;20399;-77
2021/11/07 12:48:56;;;;;;;4.05;2.67;;;;;;;;;;4954742;28;20236;-77
2021/11/07 12:51:33;;;;;;;3.83;2.95;;;;;;;;;;4957315;28;20029;-77
2021/11/07 12:54:20;;;;;;;6.20;3.28;;;;;;;;;;4953738;28;20039;-77
2021/11/07 12:56:47;;;;;;;4.22;2.30;;;;;;;;;;4954057;28;20062;-77
2021/11/07 12:59:27;;;;;;;4.28;2.50;;;;;;;;;;4956593;28;20043;-77
2021/11/07 13:02:03;;;;;;;5.13;2.72;;;;;;;;;;4955831;28;20442;-77
2021/11/07 13:04:44;;;;;;;6.68;2.10;;;;;;;;;;4939875;28;20027;-77
2021/11/07 13:07:22;;;;;;;4.95;3.10;;;;;;;;;;4952983;28;20059;-78
2021/11/07 13:09:57;;;;;;;3.15;1.90;;;;;;;;;;4950907;28;20027;-76
2021/11/07 13:12:27;;;;;;;4.35;2.83;;;;;;;;;;4957077;28;20046;-77
2021/11/07 13:18:06;;;;;;;3.10;2.20;;;;;;;;;;4934795;28;20046;-77
2021/11/07 13:28:45;;;;;;;3.85;2.58;;;;;;;;;;4957754;28;20062;-77
2021/11/07 13:31:24;;;;;;;7.18;2.83;;;;;;;;;;4949332;28;20545;-78
2021/11/07 13:34:07;;;;;;;3.67;1.90;;;;;;;;;;4936060;28;20055;-77
2021/11/07 13:36:42;;;;;;;4.63;2.90;;;;;;;;;;4953716;28;20042;-77
2021/11/07 13:39:09;;;;;;;8.07;2.85;;;;;;;;;;4935732;28;20027;-77
2021/11/07 13:41:36;;;;;;;5.15;2.78;;;;;;;;;;4953414;28;20031;-78
2021/11/07 13:44:17;;;;;;;2.88;1.70;;;;;;;;;;4953910;28;20023;-77
2021/11/07 13:47:01;;;;;;;3.60;2.08;;;;;;;;;;4953289;28;20059;-78
2021/11/07 13:49:29;;;;;;;3.13;1.77;;;;;;;;;;4935621;28;20375;-76
2021/11/07 13:52:01;;;;;;;4.38;2.22;;;;;;;;;;4950889;28;20059;-77
2021/11/07 13:54:28;;;;;;;3.95;1.85;;;;;;;;;;4939744;28;20061;-77
2021/11/07 13:56:57;;;;;;;2.63;1.90;;;;;;;;;;4935943;29;20575;-77
2021/11/07 13:59:33;;;;;;;2.25;2.00;;;;;;;;;;4934662;28;20030;-77
2021/11/07 14:02:00;;;;;;;2.53;1.80;;;;;;;;;;4963821;28;20406;-78
2021/11/07 14:04:49;;;;;;;7.70;3.60;;;;;;;;;;4941358;28;20099;-78
2021/11/07 14:07:35;;;;;;;3.28;2.40;;;;;;;;;;4952634;28;20156;-77
2021/11/07 14:10:07;;;;;;;5.60;3.67;;;;;;;;;;4953554;28;20101;-78
2021/11/07 14:12:43;;;;;;;6.15;4.35;;;;;;;;;;4950535;28;20378;-78
2021/11/07 14:15:11;;;;;;;3.45;2.30;;;;;;;;;;4950406;28;20562;-78
2021/11/07 14:17:38;;;;;;;1.98;1.42;;;;;;;;;;4956170;28;20085;-78
2021/11/07 14:20:07;;;;;;;2.78;1.95;;;;;;;;;;4953540;28;20035;-77
2021/11/07 14:22:37;;;;;;;2.63;2.00;;;;;;;;;;4955152;28;20066;-77
2021/11/07 14:25:08;;;;;;;3.35;2.10;;;;;;;;;;4935916;28;20038;-78
2021/11/07 14:27:46;;;;;;;3.83;2.20;;;;;;;;;;4951988;28;20031;-77
2021/11/07 14:30:19;;;;;;;5.28;3.33;;;;;;;;;;4948719;28;20110;-77
2021/11/07 14:32:59;;;;;;;4.32;2.17;;;;;;;;;;4952256;28;20369;-77
2021/11/07 14:35:27;;;;;;;2.95;2.42;;;;;;;;;;4952580;28;20114;-77
2021/11/07 14:38:07;;;;;;;3.45;2.63;;;;;;;;;;4949971;28;20038;-77
2021/11/07 14:40:49;;;;;;;4.68;2.55;;;;;;;;;;4950942;28;20549;-77
2021/11/07 15:07:35;;;;;;;4.97;3.40;;;;;;;;;;4956318;28;20054;-80
2021/11/07 15:20:25;;;;;;;6.22;4.45;;;;;;;;;;4954012;28;20035;-79
2021/11/07 15:22:52;;;;;;;6.28;3.50;;;;;;;;;;4951848;28;20166;-77
2021/11/07 15:25:19;;;;;;;3.22;2.03;;;;;;;;;;4936560;28;20506;-77
2021/11/07 15:28:02;;;;;;;7.70;4.68;;;;;;;;;;4938416;28;20125;-78
2021/11/07 15:30:36;;;;;;;7.22;4.38;;;;;;;;;;4938485;28;20486;-78
2021/11/07 15:33:13;;;;;;;3.22;2.10;;;;;;;;;;4938532;28;20182;-78
2021/11/07 15:35:47;;;;;;;2.85;1.92;;;;;;;;;;4952782;28;20439;-77
2021/11/07 15:38:23;;;;;;;4.00;2.67;;;;;;;;;;4948052;28;20038;-77
2021/11/07 15:40:51;;;;;;;9.63;3.78;;;;;;;;;;4954359;28;20031;-77
2021/11/07 15:43:19;;;;;;;9.27;4.32;;;;;;;;;;4952107;28;20419;-78
2021/11/07 15:46:09;;;;;;;5.57;3.20;;;;;;;;;;4958253;28;20024;-78
2021/11/07 15:48:43;;;;;;;3.75;2.40;;;;;;;;;;4956621;28;20079;-78
2021/11/07 16:09:18;;;;;;;4.97;2.60;;;;;;;;;;4955859;28;20027;-78
2021/11/07 16:14:25;;;;;;;3.92;2.10;;;;;;;;;;4960929;28;20089;-78
2021/11/07 16:17:12;;;;;;;4.75;2.28;;;;;;;;;;4958710;28;20461;-77
2021/11/07 16:19:42;;;;;;;3.63;2.30;;;;;;;;;;4958889;28;20031;-78
2021/11/07 16:22:08;;;;;;;4.13;2.15;;;;;;;;;;4959124;28;20019;-79
2021/11/07 16:24:34;;;;;;;6.80;3.05;;;;;;;;;;4958477;28;20152;-79
2021/11/07 16:27:05;;;;;;;5.72;2.30;;;;;;;;;;4955298;28;20046;-79
2021/11/07 16:29:32;;;;;;;6.03;2.72;;;;;;;;;;4942359;28;20023;-80
2021/11/07 16:32:09;;;;;;;6.70;3.72;;;;;;;;;;4940489;29;20552;-78
2021/11/07 16:34:41;;;;;;;5.63;3.25;;;;;;;;;;4943770;28;20035;-77
2021/11/07 16:37:12;;;;;;;7.45;3.70;;;;;;;;;;4955474;28;20029;-78
2021/11/07 16:39:47;;;;;;;6.95;3.75;;;;;;;;;;4959065;28;20409;-79
2021/11/07 16:42:15;;;;;;;5.55;3.30;;;;;;;;;;4958273;28;20031;-77
2021/11/07 16:44:41;;;;;;;5.55;3.00;;;;;;;;;;4956426;28;20034;-78
2021/11/07 16:47:28;;;;;;;3.45;2.40;;;;;;;;;;4959375;28;20043;-77
2021/11/07 16:49:57;;;;;;;4.07;2.55;;;;;;;;;;4953517;28;20038;-77
2021/11/07 16:52:27;;;;;;;4.68;2.83;;;;;;;;;;4943921;28;20038;-78
2021/11/07 16:55:30;;;;;;;3.50;2.75;;;;;;;;;;4952134;28;20062;-78
2021/11/07 16:57:45;;;;;;;4.82;2.90;;;;;;;;;;4956124;28;20110;-79
2021/11/07 17:00:20;;;;;;;5.25;3.35;;;;;;;;;;4956654;28;20039;-80
2021/11/07 17:02:51;;;;;;;8.75;4.10;;;;;;;;;;4956322;28;20106;-77
2021/11/07 17:08:02;;;;;;;12.43;7.30;;;;;;;;;;4952810;28;20039;-79
2021/11/07 17:10:31;;;;;;;6.05;4.25;;;;;;;;;;4957422;28;20153;-79
2021/11/07 17:13:04;;;;;;;;;;;;;;;;;;4951359;28;20654;-77
2021/11/07 17:15:41;;;;;;;4.32;2.53;;;;;;;;;;4951992;28;20129;-80
2021/11/07 17:24:01;;;;;;;7.68;3.85;;;;;;;;;;4952362;28;20114;-80
2021/11/07 17:26:12;;;;;;;7.95;3.83;;;;;;;;;;4949937;28;20184;-80
2021/11/07 17:31:15;;;;;;;20.13;7.40;;;;;;;;;;4955202;28;20118;-79
2021/11/07 17:49:31;;;;;;;44.40;18.75;;;;;;;;;;4955889;28;20034;-79
2021/11/07 17:54:45;;;;;;;6.35;4.13;;;;;;;;;;4956174;28;20045;-79
2021/11/07 17:57:16;;;;;;;8.45;4.63;;;;;;;;;;4940364;28;20023;-79
2021/11/07 17:59:42;;;;;;;6.85;4.55;;;;;;;;;;4955761;28;20119;-78
2021/11/07 18:02:12;;;;;;;7.07;4.30;;;;;;;;;;4956390;28;20121;-78
2021/11/07 18:04:38;;;;;;;;;;;;;;;;;;4955277;28;20027;-78
2021/11/07 18:07:11;;;;;;;6.72;4.40;;;;;;;;;;4943385;28;19933;-81
2021/11/07 18:09:56;;;;;;;5.88;3.72;;;;;;;;;;4952570;28;20024;-80
2021/11/07 18:12:23;;;;;;;15.27;7.78;;;;;;;;;;4936319;28;20031;-79
2021/11/07 18:14:49;;;;;;;9.60;5.85;;;;;;;;;;4956004;28;20031;-80
2021/11/07 18:17:20;;;;;;;8.43;4.78;;;;;;;;;;4959589;28;20015;-80
2021/11/07 18:19:46;;;;;;;6.07;4.28;;;;;;;;;;4956315;28;20023;-78
2021/11/07 18:22:18;;;;;;;8.27;4.55;;;;;;;;;;4950976;28;20050;-79
2021/11/07 18:24:50;;;;;;;17.10;5.78;;;;;;;;;;4954129;28;20075;-80
2021/11/07 18:27:18;;;;;;;216.60;41.28;;;;;;;;;;4951657;28;20031;-80
2021/11/07 18:29:47;;;;;;;48.70;14.82;;;;;;;;;;4951120;28;20034;-79
2021/11/07 18:32:13;;;;;;;14.48;5.53;;;;;;;;;;4939894;28;20119;-80
2021/11/07 18:34:41;;;;;;;12.70;5.57;;;;;;;;;;4953977;28;20061;-79
2021/11/07 18:37:08;;;;;;;11.90;6.15;;;;;;;;;;4938731;28;20444;-80
2021/11/07 18:39:33;;;;;;;33.88;11.73;;;;;;;;;;4953487;28;20313;-79
2021/11/07 18:41:59;;;;;;;22.48;9.27;;;;;;;;;;4940655;28;20122;-80
2021/11/07 18:44:26;;;;;;;7.53;4.60;;;;;;;;;;4943592;28;20023;-79